Time;durP1;ratioP1;P1;durP2;ratioP2;P2;SDS_P1;SDS_P2;PMS_P1;PMS_P2;Temp;Humidity;BMP_temperature;BMP_pressure;BME280_temperature;BME280_humidity;BME280_pressure;Samples;Min_cycle;Max_cycle;Signal;HPM_P1;HPM_P2
2021/12/29 00:00:10;;;;;;;6.00;2.75;;;7.50;99.90;;;;;;5006827;28;20297;-73
2021/12/29 00:02:38;;;;;;;4.22;2.00;;;7.60;99.90;;;;;;5006862;28;20611;-73
2021/12/29 00:05:05;;;;;;;2.97;1.70;;;7.60;99.90;;;;;;5006931;28;20907;-72
2021/12/29 00:07:32;;;;;;;5.05;1.52;;;7.60;99.90;;;;;;5007444;28;20199;-73
2021/12/29 00:10:01;;;;;;;4.43;1.60;;;7.60;99.90;;;;;;5008924;28;20229;-73
2021/12/29 00:12:28;;;;;;;5.70;1.90;;;7.60;99.90;;;;;;5006232;28;20206;-73
2021/12/29 00:14:56;;;;;;;4.35;1.50;;;7.60;99.90;;;;;;5006556;28;20230;-74
2021/12/29 00:17:25;;;;;;;2.53;1.35;;;7.60;99.90;;;;;;5006957;28;20206;-73
2021/12/29 00:19:52;;;;;;;4.63;1.70;;;7.60;99.90;;;;;;5006520;28;20199;-73
2021/12/29 00:22:18;;;;;;;2.47;1.60;;;7.60;99.90;;;;;;5005879;28;20705;-74
2021/12/29 00:24:46;;;;;;;4.05;1.58;;;7.60;99.90;;;;;;5006099;28;20222;-73
2021/12/29 00:27:13;;;;;;;2.95;1.85;;;7.50;99.90;;;;;;5006600;28;20666;-72
2021/12/29 00:29:40;;;;;;;3.65;1.35;;;7.60;99.90;;;;;;5006889;28;20206;-73
2021/12/29 00:32:07;;;;;;;8.32;1.80;;;7.60;99.90;;;;;;5005820;28;20206;-73
2021/12/29 00:34:35;;;;;;;4.32;1.40;;;7.60;99.90;;;;;;5006597;28;20717;-72
2021/12/29 00:37:02;;;;;;;4.43;1.45;;;7.60;99.90;;;;;;5006507;28;20203;-75
2021/12/29 00:39:28;;;;;;;2.38;1.70;;;7.50;99.90;;;;;;5010871;28;20210;-75
2021/12/29 00:41:55;;;;;;;4.28;1.38;;;7.60;99.90;;;;;;5010026;28;20721;-75
2021/12/29 00:44:22;;;;;;;5.22;1.67;;;7.50;99.90;;;;;;5010862;28;20229;-74
2021/12/29 00:46:53;;;;;;;1.70;1.50;;;7.50;99.90;;;;;;5014701;28;20574;-75
2021/12/29 00:49:20;;;;;;;3.17;1.70;;;7.50;99.90;;;;;;5014551;28;20574;-73
2021/12/29 00:51:49;;;;;;;5.00;2.15;;;7.50;99.90;;;;;;5014065;28;20235;-73
2021/12/29 00:54:16;;;;;;;5.70;1.50;;;7.50;99.90;;;;;;5014123;28;20222;-73
2021/12/29 00:56:44;;;;;;;3.45;1.45;;;7.50;99.90;;;;;;5014505;28;20207;-73
2021/12/29 00:59:10;;;;;;;3.92;1.48;;;7.50;99.90;;;;;;5014392;28;20563;-71
2021/12/29 01:01:37;;;;;;;3.33;1.30;;;7.50;99.90;;;;;;5013814;28;20595;-73
2021/12/29 01:04:04;;;;;;;3.40;1.63;;;7.60;99.90;;;;;;5014080;28;20234;-73
2021/12/29 01:06:31;;;;;;;4.75;1.13;;;7.50;99.90;;;;;;5014162;28;20210;-75
2021/12/29 01:08:59;;;;;;;3.72;1.60;;;7.50;99.90;;;;;;5014266;28;20202;-75
2021/12/29 01:11:26;;;;;;;1.50;1.23;;;7.60;99.90;;;;;;5013856;28;20210;-74
2021/12/29 01:13:53;;;;;;;6.57;1.30;;;7.50;99.90;;;;;;5013799;28;20231;-75
2021/12/29 01:16:38;;;;;;;5.85;1.50;;;7.60;99.90;;;;;;5014087;28;20207;-74
2021/12/29 01:19:09;;;;;;;2.55;1.50;;;7.60;99.90;;;;;;5013673;28;20217;-75
2021/12/29 01:21:37;;;;;;;3.00;1.27;;;7.60;99.90;;;;;;5013496;28;20623;-74
2021/12/29 01:24:07;;;;;;;3.10;1.27;;;7.60;99.90;;;;;;5013501;28;20219;-75
2021/12/29 01:26:33;;;;;;;6.78;1.50;;;7.60;99.90;;;;;;5013794;28;20674;-75
2021/12/29 01:29:00;;;;;;;1.65;1.15;;;7.60;99.90;;;;;;5013452;28;20280;-74
2021/12/29 01:31:27;;;;;;;1.20;1.00;;;7.50;99.90;;;;;;5013322;28;20206;-74
2021/12/29 01:33:54;;;;;;;4.55;2.15;;;7.60;99.90;;;;;;5013632;28;20234;-75
2021/12/29 01:36:21;;;;;;;2.28;1.40;;;7.60;99.90;;;;;;5013448;28;20209;-74
2021/12/29 01:38:48;;;;;;;3.00;1.50;;;7.60;99.90;;;;;;5010951;28;20722;-75
2021/12/29 01:41:16;;;;;;;1.75;0.90;;;7.70;99.90;;;;;;5012856;28;20692;-75
2021/12/29 01:43:43;;;;;;;2.25;1.00;;;7.70;99.90;;;;;;5013440;28;20396;-74
2021/12/29 01:46:09;;;;;;;2.45;1.20;;;7.60;99.90;;;;;;5016106;28;20207;-74
2021/12/29 01:48:36;;;;;;;2.20;1.05;;;7.70;99.90;;;;;;5013474;28;20202;-75
2021/12/29 01:51:03;;;;;;;1.73;1.00;;;7.70;99.90;;;;;;5012868;28;20309;-74
2021/12/29 01:53:32;;;;;;;1.42;0.90;;;7.70;99.90;;;;;;5013179;28;20422;-75
2021/12/29 01:55:59;;;;;;;2.00;1.33;;;7.70;99.90;;;;;;5012240;28;20210;-75
2021/12/29 01:58:28;;;;;;;1.80;1.20;;;7.60;99.90;;;;;;5013370;28;20214;-74
2021/12/29 02:00:59;;;;;;;1.40;1.10;;;7.70;99.90;;;;;;5012546;28;20229;-75
2021/12/29 02:03:27;;;;;;;1.27;0.90;;;7.60;99.90;;;;;;5012960;28;20250;-74
2021/12/29 02:05:53;;;;;;;2.75;1.20;;;7.70;99.90;;;;;;5012935;28;20210;-75
2021/12/29 02:08:23;;;;;;;1.20;0.90;;;7.60;99.90;;;;;;5012745;28;20670;-75
2021/12/29 02:10:51;;;;;;;1.88;1.08;;;7.70;99.90;;;;;;5012901;28;20203;-74
2021/12/29 02:13:18;;;;;;;1.70;0.90;;;7.70;99.90;;;;;;5013106;28;20223;-75
2021/12/29 02:15:47;;;;;;;1.55;0.90;;;7.70;99.90;;;;;;5013068;28;20198;-75
2021/12/29 02:18:15;;;;;;;1.15;0.95;;;7.70;99.90;;;;;;5012797;28;20661;-75
2021/12/29 02:20:46;;;;;;;2.00;0.80;;;7.70;99.90;;;;;;5012733;28;20296;-74
2021/12/29 02:23:15;;;;;;;1.70;0.80;;;7.70;99.90;;;;;;5012183;28;20276;-75
2021/12/29 02:25:49;;;;;;;1.70;0.82;;;7.70;99.90;;;;;;5012811;28;20202;-75
2021/12/29 02:28:23;;;;;;;2.08;0.80;;;7.70;99.90;;;;;;5013014;28;20210;-74
2021/12/29 02:30:51;;;;;;;1.27;1.00;;;7.70;99.90;;;;;;5012473;28;20208;-74
2021/12/29 02:33:18;;;;;;;1.45;1.30;;;7.60;99.90;;;;;;5012647;28;20590;-74
2021/12/29 02:35:46;;;;;;;1.13;0.77;;;7.70;99.90;;;;;;5012708;28;20210;-75
2021/12/29 02:38:25;;;;;;;1.70;0.80;;;7.70;99.90;;;;;;5012390;28;20276;-75
2021/12/29 02:40:55;;;;;;;1.30;0.90;;;7.70;99.90;;;;;;5012005;28;20598;-73
2021/12/29 02:43:23;;;;;;;2.08;0.77;;;7.70;99.90;;;;;;5012080;28;20227;-73
2021/12/29 02:45:58;;;;;;;1.00;0.90;;;7.70;99.90;;;;;;5012387;28;20199;-75
2021/12/29 02:48:27;;;;;;;1.10;0.80;;;7.70;99.90;;;;;;5012372;28;20289;-74
2021/12/29 02:50:56;;;;;;;0.70;0.70;;;7.70;99.90;;;;;;5011791;28;20203;-75
2021/12/29 02:53:25;;;;;;;1.70;1.00;;;7.70;99.90;;;;;;5012352;28;20566;-74
2021/12/29 02:55:52;;;;;;;1.05;0.80;;;7.80;99.90;;;;;;5012287;28;20260;-74
2021/12/29 02:58:19;;;;;;;0.90;0.80;;;7.80;99.90;;;;;;5012330;28;20206;-74
2021/12/29 03:00:46;;;;;;;1.00;0.70;;;7.80;99.90;;;;;;5011841;28;20198;-75
2021/12/29 03:03:17;;;;;;;1.45;0.80;;;7.90;99.90;;;;;;5011391;28;20223;-76
2021/12/29 03:05:44;;;;;;;2.25;0.90;;;7.90;99.90;;;;;;5012099;28;20217;-74
2021/12/29 03:08:13;;;;;;;1.60;0.90;;;7.90;99.90;;;;;;5082349;22;20222;-74
2021/12/29 03:10:42;;;;;;;1.20;0.80;;;7.90;99.90;;;;;;5030094;28;20255;-75
2021/12/29 03:13:09;;;;;;;1.23;0.80;;;7.90;99.90;;;;;;5030927;28;20229;-75
2021/12/29 03:15:36;;;;;;;0.90;0.80;;;7.90;99.90;;;;;;5030938;28;20700;-75
2021/12/29 03:18:04;;;;;;;0.80;0.70;;;7.90;99.90;;;;;;5031401;28;20202;-74
2021/12/29 03:20:31;;;;;;;1.80;0.73;;;7.90;99.90;;;;;;5031122;28;20205;-75
2021/12/29 03:22:58;;;;;;;1.17;0.80;;;7.90;99.90;;;;;;5030287;28;20248;-74
2021/12/29 03:25:27;;;;;;;0.82;0.70;;;7.90;99.90;;;;;;5030899;28;20197;-75
2021/12/29 03:27:58;;;;;;;0.98;0.70;;;7.90;99.90;;;;;;5030950;28;20248;-74
2021/12/29 03:30:25;;;;;;;0.80;0.70;;;7.90;99.90;;;;;;5031112;28;20665;-74
2021/12/29 03:33:02;;;;;;;1.05;0.95;;;7.90;99.90;;;;;;5030283;28;20210;-74
2021/12/29 03:35:30;;;;;;;1.10;0.70;;;7.90;99.90;;;;;;5030541;28;20201;-75
2021/12/29 03:37:57;;;;;;;1.65;0.93;;;7.90;99.90;;;;;;5030832;28;20198;-75
2021/12/29 03:40:24;;;;;;;1.00;0.80;;;7.80;99.90;;;;;;5030368;28;20206;-75
2021/12/29 03:42:52;;;;;;;1.20;0.80;;;7.80;99.90;;;;;;5030333;28;20550;-75
2021/12/29 03:45:20;;;;;;;1.35;0.80;;;7.80;99.90;;;;;;5030352;28;20209;-75
2021/12/29 03:47:46;;;;;;;1.00;0.80;;;7.80;99.90;;;;;;5030726;28;20208;-75
2021/12/29 03:50:13;;;;;;;0.93;0.82;;;7.80;99.90;;;;;;5030910;28;20198;-74
2021/12/29 03:52:40;;;;;;;1.27;0.80;;;7.90;99.90;;;;;;5029499;28;20511;-74
2021/12/29 03:55:08;;;;;;;1.90;0.90;;;7.80;99.90;;;;;;5030662;28;20609;-74
2021/12/29 03:57:35;;;;;;;1.83;0.80;;;7.80;99.90;;;;;;5030152;28;20229;-74
2021/12/29 04:00:05;;;;;;;1.00;0.80;;;7.80;99.90;;;;;;5030534;28;20201;-74
2021/12/29 04:02:32;;;;;;;2.83;1.00;;;7.80;99.90;;;;;;5029828;28;20197;-74
2021/12/29 04:05:00;;;;;;;5.55;1.27;;;7.80;99.90;;;;;;5030078;28;20221;-74
2021/12/29 04:07:27;;;;;;;3.75;1.00;;;7.80;99.90;;;;;;5030438;28;20677;-74
2021/12/29 04:09:53;;;;;;;3.20;1.05;;;7.70;99.90;;;;;;5030394;28;20520;-75
2021/12/29 04:12:21;;;;;;;1.08;0.90;;;7.70;99.90;;;;;;5029498;28;20198;-75
2021/12/29 04:14:47;;;;;;;2.53;1.17;;;7.70;99.90;;;;;;5030318;28;20252;-74
2021/12/29 04:17:18;;;;;;;3.20;1.10;;;7.60;99.90;;;;;;5029988;28;20677;-74
2021/12/29 04:22:31;;;;;;;3.38;1.13;;;7.70;99.90;;;;;;5033618;28;20212;-75
2021/12/29 04:24:58;;;;;;;1.60;1.10;;;7.70;99.90;;;;;;5034338;28;20236;-74
2021/12/29 04:27:26;;;;;;;1.45;0.93;;;7.70;99.90;;;;;;5034154;28;20201;-75
2021/12/29 04:29:53;;;;;;;1.58;0.90;;;7.70;99.90;;;;;;5033957;28;20206;-74
2021/12/29 04:32:22;;;;;;;2.63;1.10;;;7.70;99.90;;;;;;5033778;28;20206;-74
2021/12/29 04:34:49;;;;;;;1.55;1.10;;;7.70;99.90;;;;;;5033662;28;20563;-74
2021/12/29 04:37:16;;;;;;;1.70;1.20;;;7.70;99.90;;;;;;5034053;28;20206;-74
2021/12/29 04:39:42;;;;;;;1.95;1.00;;;7.60;99.90;;;;;;5033943;28;20205;-74
2021/12/29 04:42:09;;;;;;;1.35;1.13;;;7.60;99.90;;;;;;5033234;28;20213;-75
2021/12/29 04:44:36;;;;;;;1.42;1.00;;;7.60;99.90;;;;;;5033650;28;20229;-74
2021/12/29 04:47:03;;;;;;;1.90;1.33;;;7.60;99.90;;;;;;5033735;28;20205;-75
2021/12/29 04:49:39;;;;;;;2.10;1.02;;;7.60;99.90;;;;;;5033653;28;20204;-75
2021/12/29 04:52:07;;;;;;;1.52;0.90;;;7.60;99.90;;;;;;5033567;28;20301;-74
2021/12/29 04:54:34;;;;;;;2.55;1.00;;;7.60;99.90;;;;;;5033257;28;20233;-75
2021/12/29 04:57:02;;;;;;;1.98;1.40;;;7.60;99.90;;;;;;5033723;28;20208;-75
2021/12/29 04:59:29;;;;;;;5.00;1.20;;;7.60;99.90;;;;;;5033383;28;20601;-75
2021/12/29 05:01:56;;;;;;;1.52;1.20;;;7.60;99.90;;;;;;5033287;28;20202;-75
2021/12/29 05:04:30;;;;;;;1.20;0.90;;;7.70;99.90;;;;;;5033244;28;20231;-75
2021/12/29 05:09:43;;;;;;;1.65;1.00;;;7.60;99.90;;;;;;5033568;28;20267;-75
2021/12/29 05:12:10;;;;;;;2.45;1.23;;;7.70;99.90;;;;;;5032688;28;20217;-75
2021/12/29 05:14:38;;;;;;;1.10;0.85;;;7.70;99.90;;;;;;5033272;28;20221;-75
2021/12/29 05:17:06;;;;;;;2.80;1.00;;;7.60;99.90;;;;;;5033509;28;20217;-74
2021/12/29 05:19:33;;;;;;;1.80;1.17;;;7.70;99.90;;;;;;5034788;28;20267;-75
2021/12/29 05:22:01;;;;;;;2.25;1.00;;;7.60;99.90;;;;;;5032854;28;20197;-75
2021/12/29 05:24:28;;;;;;;2.05;1.20;;;7.60;99.90;;;;;;5032958;28;20233;-75
2021/12/29 05:26:55;;;;;;;3.20;0.88;;;7.60;99.90;;;;;;5033462;28;20209;-75
2021/12/29 05:29:22;;;;;;;3.05;1.00;;;7.60;99.90;;;;;;5033050;28;20212;-75
2021/12/29 05:31:49;;;;;;;2.33;1.20;;;7.60;99.90;;;;;;5032313;28;20206;-75
2021/12/29 05:34:15;;;;;;;2.10;0.90;;;7.60;99.90;;;;;;5033340;28;20712;-75
2021/12/29 05:36:42;;;;;;;7.65;1.40;;;7.60;99.90;;;;;;5032676;28;20210;-75
2021/12/29 05:39:10;;;;;;;2.42;1.02;;;7.60;99.90;;;;;;5033119;28;20205;-75
2021/12/29 05:41:37;;;;;;;2.17;1.10;;;7.60;99.90;;;;;;5032218;28;20222;-75
2021/12/29 05:44:05;;;;;;;1.45;1.10;;;7.50;99.90;;;;;;5032518;28;20233;-75
2021/12/29 05:46:31;;;;;;;4.18;1.60;;;7.60;99.90;;;;;;5032866;28;20198;-75
2021/12/29 05:48:58;;;;;;;2.95;1.20;;;7.60;99.90;;;;;;5032580;28;20198;-75
2021/12/29 05:51:25;;;;;;;1.55;1.10;;;7.50;99.90;;;;;;5032137;28;20208;-75
2021/12/29 05:53:51;;;;;;;1.90;1.42;;;7.50;99.90;;;;;;5032652;28;20583;-75
2021/12/29 05:56:19;;;;;;;3.17;1.25;;;7.50;99.90;;;;;;5032210;28;20304;-75
2021/12/29 05:58:46;;;;;;;1.55;0.93;;;7.50;99.90;;;;;;5032609;28;20217;-75
2021/12/29 06:01:13;;;;;;;3.05;1.10;;;7.50;99.90;;;;;;5031848;28;20209;-75
2021/12/29 06:03:40;;;;;;;3.03;1.20;;;7.50;99.90;;;;;;5032268;28;20241;-76
2021/12/29 06:06:07;;;;;;;1.45;0.90;;;7.50;99.90;;;;;;5032921;28;20202;-75
2021/12/29 06:08:34;;;;;;;2.78;1.10;;;7.50;99.90;;;;;;5031971;28;20632;-75
2021/12/29 06:11:00;;;;;;;2.53;1.10;;;7.50;99.90;;;;;;5032199;28;20205;-75
2021/12/29 06:13:28;;;;;;;1.65;1.17;;;7.50;99.90;;;;;;5031880;28;20221;-75
2021/12/29 06:15:55;;;;;;;3.47;1.13;;;7.40;99.90;;;;;;5032634;28;20205;-75
2021/12/29 06:18:22;;;;;;;1.15;1.00;;;7.40;99.90;;;;;;5032188;28;20217;-75
2021/12/29 06:20:48;;;;;;;3.17;1.40;;;7.40;99.90;;;;;;5031772;28;20213;-75
2021/12/29 06:23:15;;;;;;;2.00;1.00;;;7.40;99.90;;;;;;5031918;28;20228;-75
2021/12/29 06:25:42;;;;;;;2.35;1.30;;;7.40;99.90;;;;;;5031892;28;20317;-75
2021/12/29 06:28:09;;;;;;;1.75;1.13;;;7.40;99.90;;;;;;5032368;28;20608;-75
2021/12/29 06:30:37;;;;;;;3.38;1.90;;;7.30;99.90;;;;;;5031782;28;20212;-75
2021/12/29 06:33:04;;;;;;;2.78;1.27;;;7.30;99.90;;;;;;5031300;28;20222;-75
2021/12/29 06:35:31;;;;;;;4.57;1.10;;;7.30;99.90;;;;;;5031972;28;20585;-76
2021/12/29 06:37:58;;;;;;;2.45;1.40;;;7.30;99.90;;;;;;5031654;28;20202;-75
2021/12/29 06:40:25;;;;;;;2.75;1.35;;;7.30;99.90;;;;;;5031991;28;20577;-75
2021/12/29 06:42:51;;;;;;;3.00;1.27;;;7.30;99.90;;;;;;5030677;28;20205;-74
2021/12/29 06:45:18;;;;;;;2.08;1.30;;;7.30;99.90;;;;;;5031404;28;20221;-75
2021/12/29 06:47:46;;;;;;;2.67;1.20;;;7.30;99.90;;;;;;5031583;28;20277;-75
2021/12/29 06:50:13;;;;;;;3.40;1.27;;;7.30;99.90;;;;;;5031625;28;20206;-74
2021/12/29 06:52:40;;;;;;;1.27;1.00;;;7.30;99.90;;;;;;5030920;28;20217;-74
2021/12/29 06:55:08;;;;;;;4.18;1.35;;;7.30;99.90;;;;;;5031597;28;20661;-75
2021/12/29 06:57:35;;;;;;;2.45;1.02;;;7.30;99.90;;;;;;5031149;28;20212;-75
2021/12/29 07:00:02;;;;;;;2.80;1.17;;;7.20;99.90;;;;;;5031770;28;20201;-74
2021/12/29 07:02:28;;;;;;;1.80;1.38;;;7.20;99.90;;;;;;5030533;28;20884;-74
2021/12/29 07:04:56;;;;;;;2.00;1.00;;;7.30;99.90;;;;;;5031289;28;20229;-74
2021/12/29 07:07:23;;;;;;;1.90;0.90;;;7.30;99.90;;;;;;5031216;28;20685;-75
2021/12/29 07:09:50;;;;;;;2.00;0.93;;;7.30;99.90;;;;;;5031193;28;20202;-75
2021/12/29 07:12:19;;;;;;;1.98;1.45;;;7.30;99.90;;;;;;5030767;28;20583;-74
2021/12/29 07:14:46;;;;;;;2.33;1.20;;;7.30;99.90;;;;;;5031028;28;20226;-76
2021/12/29 07:17:12;;;;;;;3.08;1.25;;;7.30;99.90;;;;;;5031162;28;20205;-75
2021/12/29 07:19:39;;;;;;;2.95;1.27;;;7.30;99.90;;;;;;5016266;28;20548;-75
2021/12/29 07:22:07;;;;;;;1.38;0.93;;;7.30;99.90;;;;;;5005788;28;20570;-75
2021/12/29 07:24:35;;;;;;;3.00;1.40;;;7.30;99.90;;;;;;5009276;28;20841;-72
2021/12/29 07:27:03;;;;;;;2.95;1.10;;;7.40;99.90;;;;;;5009099;28;20204;-72
2021/12/29 07:29:30;;;;;;;1.52;1.10;;;7.40;99.90;;;;;;4997401;28;20713;-71
2021/12/29 07:31:58;;;;;;;4.00;1.20;;;7.40;99.90;;;;;;5000779;28;20213;-71
2021/12/29 07:34:26;;;;;;;3.65;1.25;;;7.40;99.90;;;;;;4999391;28;20218;-71
2021/12/29 07:36:53;;;;;;;2.80;1.40;;;7.50;99.90;;;;;;5000581;28;20206;-71
2021/12/29 07:39:22;;;;;;;1.60;1.05;;;7.50;99.90;;;;;;4998047;28;20572;-71
2021/12/29 07:41:50;;;;;;;2.17;1.13;;;7.60;99.90;;;;;;4998307;28;20486;-72
2021/12/29 07:44:17;;;;;;;2.72;1.20;;;7.60;99.90;;;;;;5000189;28;20225;-72
2021/12/29 07:46:47;;;;;;;1.67;1.40;;;7.60;99.90;;;;;;5002063;28;20201;-72
2021/12/29 07:49:14;;;;;;;1.88;1.20;;;7.60;99.90;;;;;;4999749;28;20206;-73
2021/12/29 07:51:41;;;;;;;1.30;1.05;;;7.60;99.90;;;;;;4998459;28;20199;-73
2021/12/29 07:54:08;;;;;;;1.45;1.30;;;7.70;99.90;;;;;;4997963;28;20261;-73
2021/12/29 07:56:36;;;;;;;1.48;1.00;;;7.60;99.90;;;;;;5001661;28;20281;-74
2021/12/29 07:59:04;;;;;;;2.25;1.20;;;7.70;99.90;;;;;;5001918;28;20198;-74
2021/12/29 08:01:31;;;;;;;3.03;1.10;;;7.70;99.90;;;;;;5008166;28;20203;-74
2021/12/29 08:03:57;;;;;;;1.23;0.95;;;7.70;99.90;;;;;;5008551;28;20214;-74
2021/12/29 08:06:25;;;;;;;3.70;1.27;;;7.70;99.90;;;;;;5007429;28;20682;-73
2021/12/29 08:08:51;;;;;;;1.27;0.90;;;7.70;99.90;;;;;;4999768;28;20670;-73
2021/12/29 08:11:19;;;;;;;1.80;1.27;;;7.70;99.90;;;;;;4999545;28;20202;-75
2021/12/29 08:13:48;;;;;;;1.00;0.90;;;7.80;99.90;;;;;;5009143;28;20241;-74
2021/12/29 08:16:15;;;;;;;2.75;1.25;;;7.80;99.90;;;;;;5008868;28;20203;-74
2021/12/29 08:18:42;;;;;;;2.30;1.30;;;7.90;99.90;;;;;;5008679;28;20225;-74
2021/12/29 08:21:09;;;;;;;3.05;1.30;;;8.00;99.90;;;;;;5009253;28;20210;-74
2021/12/29 08:23:36;;;;;;;1.95;1.20;;;8.00;99.90;;;;;;5008562;28;20234;-74
2021/12/29 08:26:03;;;;;;;1.55;1.20;;;8.10;99.90;;;;;;5007698;28;20218;-74
2021/12/29 08:28:30;;;;;;;2.13;1.83;;;8.10;99.90;;;;;;4994853;28;20195;-74
2021/12/29 08:30:58;;;;;;;1.92;1.30;;;8.10;99.90;;;;;;4989374;28;20203;-74
2021/12/29 08:33:25;;;;;;;1.73;1.30;;;8.10;99.90;;;;;;4988785;28;20314;-74
2021/12/29 08:35:52;;;;;;;2.35;1.23;;;8.20;99.90;;;;;;4989136;28;20199;-74
2021/12/29 08:38:19;;;;;;;2.20;1.17;;;8.10;99.90;;;;;;4989224;28;20203;-74
2021/12/29 08:40:47;;;;;;;1.30;1.20;;;8.10;99.90;;;;;;4988992;28;20207;-75
2021/12/29 08:43:16;;;;;;;1.50;1.13;;;8.00;99.90;;;;;;4989016;28;20227;-74
2021/12/29 08:45:43;;;;;;;1.55;1.10;;;8.00;99.90;;;;;;4989548;28;20220;-74
2021/12/29 08:48:12;;;;;;;2.83;1.20;;;8.00;99.90;;;;;;4988234;28;20238;-75
2021/12/29 08:50:39;;;;;;;3.55;1.30;;;8.00;99.90;;;;;;4989988;28;20207;-75
2021/12/29 08:53:08;;;;;;;1.85;1.25;;;8.00;99.90;;;;;;4987587;28;20581;-74
2021/12/29 08:55:36;;;;;;;1.90;1.40;;;8.00;99.90;;;;;;4988187;28;20283;-75
2021/12/29 08:58:06;;;;;;;2.00;1.20;;;8.00;99.90;;;;;;4989080;28;20203;-74
2021/12/29 09:00:33;;;;;;;1.40;1.20;;;8.00;99.90;;;;;;4989333;28;20265;-75
2021/12/29 09:03:00;;;;;;;2.33;1.20;;;8.00;99.90;;;;;;4989380;28;20729;-75
2021/12/29 09:05:28;;;;;;;1.00;0.80;;;8.00;99.90;;;;;;5009736;28;20709;-75
2021/12/29 09:07:55;;;;;;;2.40;1.10;;;8.10;99.90;;;;;;5012622;28;20214;-75
2021/12/29 09:10:22;;;;;;;2.47;2.17;;;8.10;99.90;;;;;;5011029;28;20601;-75
2021/12/29 09:12:51;;;;;;;1.33;1.10;;;8.00;99.90;;;;;;5010729;28;20209;-75
2021/12/29 09:15:19;;;;;;;2.50;1.50;;;8.00;99.90;;;;;;5011681;28;20207;-75
2021/12/29 09:17:46;;;;;;;2.15;1.40;;;7.90;99.90;;;;;;5009466;28;20210;-74
2021/12/29 09:20:23;;;;;;;4.60;1.30;;;7.90;99.90;;;;;;5010569;28;20198;-72
2021/12/29 09:22:52;;;;;;;2.65;1.30;;;8.00;99.90;;;;;;5009259;28;20202;-72
2021/12/29 09:25:20;;;;;;;3.58;1.40;;;8.20;99.90;;;;;;5011743;28;20222;-75
2021/12/29 09:27:49;;;;;;;2.55;1.33;;;8.60;99.90;;;;;;5012388;28;20210;-75
2021/12/29 09:30:17;;;;;;;1.88;1.40;;;9.30;99.90;;;;;;5012301;28;20273;-75
2021/12/29 09:32:44;;;;;;;1.98;1.10;;;10.00;99.90;;;;;;5011255;28;20654;-75
2021/12/29 09:35:11;;;;;;;1.92;1.20;;;10.20;99.90;;;;;;5012307;28;20202;-74
2021/12/29 09:37:38;;;;;;;2.17;1.30;;;10.10;99.90;;;;;;5012246;28;20238;-75
2021/12/29 09:40:09;;;;;;;1.58;1.48;;;9.70;99.90;;;;;;5011221;28;20548;-75
2021/12/29 09:42:36;;;;;;;3.65;1.55;;;9.40;99.90;;;;;;5011209;28;20222;-75
2021/12/29 09:45:04;;;;;;;3.58;1.60;;;9.10;99.90;;;;;;5012072;28;20227;-75
2021/12/29 09:47:31;;;;;;;2.72;1.80;;;8.90;99.90;;;;;;5010824;28;20218;-75
2021/12/29 09:49:58;;;;;;;3.55;1.85;;;8.80;99.90;;;;;;5011405;28;20560;-75
2021/12/29 09:52:29;;;;;;;2.92;1.55;;;8.80;99.90;;;;;;5011403;28;20202;-75
2021/12/29 09:54:56;;;;;;;4.65;1.80;;;8.80;99.90;;;;;;5011041;28;20264;-75
2021/12/29 09:57:24;;;;;;;2.22;1.48;;;8.80;99.90;;;;;;5012135;28;20202;-75
2021/12/29 09:59:51;;;;;;;3.83;1.50;;;8.80;99.90;;;;;;5011286;28;20700;-75
2021/12/29 10:02:18;;;;;;;2.42;1.38;;;8.80;99.90;;;;;;5010626;28;20221;-75
2021/12/29 10:04:46;;;;;;;3.90;1.50;;;8.70;99.90;;;;;;5010719;28;20248;-75
2021/12/29 10:07:15;;;;;;;2.00;1.80;;;8.70;99.90;;;;;;5011704;28;20206;-75
2021/12/29 10:09:42;;;;;;;2.88;1.67;;;8.70;99.90;;;;;;5011054;28;20207;-74
2021/12/29 10:12:17;;;;;;;2.30;1.40;;;8.70;99.90;;;;;;5010369;28;20236;-75
2021/12/29 10:14:49;;;;;;;2.30;2.08;;;8.70;99.90;;;;;;5011661;28;20221;-75
2021/12/29 10:17:16;;;;;;;2.85;1.77;;;8.80;99.90;;;;;;5009976;28;20737;-75
2021/12/29 10:19:43;;;;;;;3.47;1.65;;;8.80;99.90;;;;;;5010705;28;20202;-74
2021/12/29 10:22:20;;;;;;;4.00;2.00;;;8.90;99.90;;;;;;5010832;28;20208;-74
2021/12/29 10:24:47;;;;;;;4.10;1.80;;;8.90;99.90;;;;;;5010555;28;20497;-75
2021/12/29 10:27:18;;;;;;;2.30;1.40;;;8.90;99.90;;;;;;5010978;28;20332;-74
2021/12/29 10:29:45;;;;;;;3.35;1.55;;;9.00;99.90;;;;;;5011352;28;20625;-75
2021/12/29 10:32:24;;;;;;;3.83;1.73;;;9.10;99.90;;;;;;5010251;28;20254;-75
2021/12/29 10:34:52;;;;;;;2.53;1.90;;;9.20;99.90;;;;;;5010075;28;20218;-75
2021/12/29 10:37:20;;;;;;;3.25;1.45;;;9.20;99.90;;;;;;5011146;28;20603;-74
2021/12/29 10:39:49;;;;;;;3.28;1.70;;;9.30;99.90;;;;;;5009913;28;20301;-75
2021/12/29 10:42:19;;;;;;;2.65;1.67;;;9.20;99.90;;;;;;5010272;28;20272;-74
2021/12/29 10:44:48;;;;;;;3.40;1.65;;;9.20;99.90;;;;;;5010948;28;20223;-74
2021/12/29 10:47:20;;;;;;;3.05;1.50;;;9.30;99.90;;;;;;5010301;28;20218;-74
2021/12/29 10:49:53;;;;;;;2.63;1.65;;;9.20;99.90;;;;;;5010169;28;20217;-74
2021/12/29 10:52:33;;;;;;;4.43;1.52;;;9.10;99.90;;;;;;5010234;28;20674;-74
2021/12/29 10:55:01;;;;;;;2.10;1.75;;;9.10;99.90;;;;;;5010226;28;20623;-74
2021/12/29 10:57:28;;;;;;;1.98;1.50;;;9.20;99.90;;;;;;5049993;22;20220;-73
2021/12/29 11:00:03;;;;;;;2.38;1.20;;;9.30;99.90;;;;;;5091085;28;20573;-74
2021/12/29 11:02:35;;;;;;;3.42;1.40;;;9.30;99.90;;;;;;5069336;28;20282;-74
2021/12/29 11:05:05;;;;;;;2.47;1.30;;;9.40;99.90;;;;;;5050694;28;20573;-75
2021/12/29 11:07:35;;;;;;;2.90;1.40;;;9.30;99.90;;;;;;5051441;28;20208;-74
2021/12/29 11:10:09;;;;;;;1.77;1.40;;;9.30;99.90;;;;;;5048997;28;20598;-74
2021/12/29 11:12:52;;;;;;;1.52;1.15;;;9.30;99.90;;;;;;5067965;28;20195;-74
2021/12/29 11:15:21;;;;;;;2.42;1.40;;;9.30;99.90;;;;;;5070077;28;20200;-74
2021/12/29 11:17:50;;;;;;;1.73;0.90;;;9.20;99.90;;;;;;5068883;28;20696;-74
2021/12/29 11:20:19;;;;;;;3.45;1.40;;;9.10;99.90;;;;;;5070121;28;20196;-75
2021/12/29 11:22:46;;;;;;;3.20;1.40;;;8.90;99.90;;;;;;5057963;28;20209;-75
2021/12/29 11:25:13;;;;;;;3.40;1.30;;;8.80;99.90;;;;;;5048973;28;20224;-75
2021/12/29 11:27:40;;;;;;;3.63;1.40;;;8.80;99.90;;;;;;5050177;28;20217;-75
2021/12/29 11:30:09;;;;;;;3.05;1.63;;;8.80;99.90;;;;;;5049910;28;20598;-72
2021/12/29 11:32:39;;;;;;;2.70;1.10;;;8.90;99.90;;;;;;5049292;28;20204;-73
2021/12/29 11:35:16;;;;;;;4.75;1.42;;;8.80;99.90;;;;;;5049666;28;20197;-74
2021/12/29 11:37:45;;;;;;;3.80;1.50;;;8.80;99.90;;;;;;5050171;28;20212;-74
2021/12/29 11:40:14;;;;;;;2.30;1.55;;;8.90;99.90;;;;;;5048556;28;20197;-73
2021/12/29 11:42:41;;;;;;;3.85;1.80;;;8.90;99.90;;;;;;5048595;28;20672;-74
2021/12/29 11:45:10;;;;;;;1.65;1.20;;;8.90;99.90;;;;;;5049410;28;20209;-74
2021/12/29 11:47:36;;;;;;;2.60;1.45;;;9.00;99.90;;;;;;5049657;28;20204;-73
2021/12/29 11:50:04;;;;;;;5.80;1.80;;;8.90;99.90;;;;;;5049408;28;20209;-74
2021/12/29 11:53:04;;;;;;;2.70;1.85;;;8.90;99.90;;;;;;5048039;28;20205;-74
2021/12/29 11:55:34;;;;;;;1.73;1.13;;;8.90;99.90;;;;;;5043798;28;20201;-74
2021/12/29 11:58:13;;;;;;;4.50;1.45;;;8.90;99.90;;;;;;5049846;28;20599;-75
2021/12/29 12:00:40;;;;;;;3.10;1.63;;;8.90;99.90;;;;;;5049130;28;20231;-75
2021/12/29 12:03:11;;;;;;;2.20;1.40;;;8.90;99.90;;;;;;5048516;28;20221;-75
2021/12/29 12:05:40;;;;;;;5.07;1.63;;;8.90;99.90;;;;;;5049677;28;20221;-75
2021/12/29 12:08:12;;;;;;;3.40;1.40;;;8.90;99.90;;;;;;5049826;28;20204;-74
2021/12/29 12:10:40;;;;;;;4.75;1.50;;;9.00;99.90;;;;;;5068003;28;20200;-73
2021/12/29 12:13:21;;;;;;;3.45;1.75;;;9.00;99.90;;;;;;5069745;28;20236;-75
2021/12/29 12:15:53;;;;;;;3.45;1.40;;;9.00;99.90;;;;;;5069409;28;20200;-74
2021/12/29 12:18:20;;;;;;;5.35;1.95;;;9.10;99.90;;;;;;5067797;28;20660;-74
2021/12/29 12:20:49;;;;;;;2.80;1.80;;;9.10;99.90;;;;;;5069320;28;20211;-74
2021/12/29 12:23:26;;;;;;;2.45;1.60;;;9.10;99.90;;;;;;5068074;28;20228;-74
2021/12/29 12:25:53;;;;;;;3.30;1.42;;;9.20;99.90;;;;;;5069270;28;20222;-75
2021/12/29 12:28:23;;;;;;;1.50;1.25;;;9.30;99.90;;;;;;5068514;28;20200;-75
2021/12/29 12:30:54;;;;;;;4.65;1.60;;;9.30;99.90;;;;;;5068423;28;20207;-75
2021/12/29 12:33:27;;;;;;;2.97;1.85;;;9.20;99.90;;;;;;5068439;28;20250;-75
2021/12/29 12:35:56;;;;;;;4.65;2.05;;;9.20;99.90;;;;;;5069059;28;20677;-75
2021/12/29 12:38:27;;;;;;;6.80;2.05;;;9.20;99.90;;;;;;5068787;28;20207;-75
2021/12/29 12:41:05;;;;;;;4.50;1.90;;;9.20;99.90;;;;;;5069120;28;20648;-75
2021/12/29 12:43:33;;;;;;;3.03;1.60;;;9.20;99.90;;;;;;5073391;28;20615;-75
2021/12/29 12:46:00;;;;;;;8.30;2.35;;;9.30;99.90;;;;;;5073903;28;20625;-75
2021/12/29 12:48:29;;;;;;;3.60;2.15;;;9.30;99.90;;;;;;5071511;28;20204;-75
2021/12/29 12:50:58;;;;;;;3.13;2.13;;;9.30;99.90;;;;;;5071910;28;20204;-75
2021/12/29 12:53:31;;;;;;;5.55;2.67;;;9.40;99.90;;;;;;5072761;28;20221;-75
2021/12/29 12:55:59;;;;;;;4.05;2.03;;;9.40;99.90;;;;;;5072439;28;20584;-74
2021/12/29 12:58:29;;;;;;;4.88;2.10;;;9.30;99.90;;;;;;5072743;28;20208;-74
2021/12/29 13:01:01;;;;;;;4.45;1.95;;;9.30;99.90;;;;;;5071672;28;20200;-74
2021/12/29 13:03:28;;;;;;;5.22;2.22;;;9.20;99.90;;;;;;5072175;28;20227;-74
2021/12/29 13:05:58;;;;;;;9.13;2.40;;;9.20;99.90;;;;;;5072233;28;20223;-74
2021/12/29 13:08:27;;;;;;;8.05;2.40;;;9.20;99.90;;;;;;5070362;28;20204;-74